Time;durP1;ratioP1;P1;durP2;ratioP2;P2;SDS_P1;SDS_P2;PMS_P1;PMS_P2;Temp;Humidity;BMP_temperature;BMP_pressure;BME280_temperature;BME280_humidity;BME280_pressure;Samples;Min_cycle;Max_cycle;Signal;HPM_P1;HPM_P2
2023/01/03 00:01:50;;;;;;;1.10;0.95;;;18.20;54.60;;;;;;5042903;28;45185;-72
2023/01/03 00:04:18;;;;;;;1.65;1.20;;;18.20;54.60;;;;;;5042680;28;45240;-72
2023/01/03 00:06:46;;;;;;;1.05;1.00;;;18.10;54.60;;;;;;5042749;27;45212;-72
2023/01/03 00:09:14;;;;;;;1.30;1.20;;;18.10;54.50;;;;;;5042979;27;45191;-72
2023/01/03 00:14:26;;;;;;;1.23;1.13;;;18.10;54.60;;;;;;5042835;28;45787;-72
2023/01/03 00:16:54;;;;;;;1.00;0.90;;;18.10;54.60;;;;;;5042738;28;45247;-72
2023/01/03 00:19:23;;;;;;;1.05;0.95;;;18.10;54.60;;;;;;5046136;28;45214;-72
2023/01/03 00:21:50;;;;;;;1.27;1.00;;;18.10;55.20;;;;;;5046183;28;45312;-72
2023/01/03 00:24:17;;;;;;;1.20;1.10;;;18.10;54.60;;;;;;5045706;28;46413;-72
2023/01/03 00:26:44;;;;;;;1.42;1.13;;;18.10;54.60;;;;;;5045641;28;45338;-72
2023/01/03 00:29:11;;;;;;;2.33;1.13;;;18.10;54.60;;;;;;5045905;28;45129;-72
2023/01/03 00:31:38;;;;;;;1.25;1.05;;;18.10;54.60;;;;;;5045875;28;45166;-72
2023/01/03 00:34:05;;;;;;;1.02;1.00;;;18.10;54.50;;;;;;5045423;28;45374;-72
2023/01/03 00:36:33;;;;;;;1.20;1.10;;;18.10;54.60;;;;;;5045589;28;45286;-72
2023/01/03 00:39:00;;;;;;;1.65;1.10;;;18.10;54.60;;;;;;5045605;28;45240;-72
2023/01/03 00:41:28;;;;;;;1.27;1.15;;;18.10;54.60;;;;;;5045889;28;45415;-72
2023/01/03 00:43:55;;;;;;;1.90;1.05;;;18.10;54.60;;;;;;5045476;27;46346;-72
2023/01/03 00:46:22;;;;;;;0.80;0.80;;;18.10;54.60;;;;;;5045312;27;46288;-71
2023/01/03 00:48:49;;;;;;;1.30;1.02;;;18.10;54.60;;;;;;5044892;28;45401;-72
2023/01/03 00:51:17;;;;;;;2.42;0.90;;;18.00;54.50;;;;;;5045821;27;45389;-71
2023/01/03 00:53:46;;;;;;;1.60;1.10;;;18.00;54.50;;;;;;5045203;28;46517;-72
2023/01/03 00:56:14;;;;;;;1.52;0.93;;;18.00;54.50;;;;;;5045366;28;45252;-72
2023/01/03 00:58:41;;;;;;;1.10;1.10;;;18.00;54.50;;;;;;5045439;28;45201;-72
2023/01/03 01:01:08;;;;;;;0.77;0.77;;;18.00;54.50;;;;;;5045630;27;45395;-72
2023/01/03 01:03:36;;;;;;;1.05;0.93;;;18.00;54.50;;;;;;5045140;28;46379;-72
2023/01/03 01:06:11;;;;;;;1.88;1.00;;;18.00;54.50;;;;;;5045054;28;45239;-71
2023/01/03 01:08:38;;;;;;;1.25;0.75;;;18.00;54.50;;;;;;5045559;28;45268;-72
2023/01/03 01:11:06;;;;;;;1.10;1.00;;;18.00;54.50;;;;;;5045449;28;45294;-72
2023/01/03 01:13:33;;;;;;;1.00;0.90;;;18.00;54.50;;;;;;5045054;28;45335;-72
2023/01/03 01:16:03;;;;;;;1.65;0.82;;;18.00;54.60;;;;;;5045372;28;45319;-72
2023/01/03 01:18:30;;;;;;;0.80;0.80;;;18.00;54.50;;;;;;5045168;28;45217;-72
2023/01/03 01:20:57;;;;;;;0.70;0.70;;;18.00;54.60;;;;;;5045451;28;45126;-72
2023/01/03 01:23:24;;;;;;;0.80;0.80;;;18.00;54.60;;;;;;5044813;28;47453;-72
2023/01/03 01:25:51;;;;;;;0.85;0.85;;;18.00;54.60;;;;;;5044900;28;45368;-72
2023/01/03 01:28:19;;;;;;;0.82;0.82;;;18.00;54.60;;;;;;5044697;28;45393;-72
2023/01/03 01:30:46;;;;;;;0.88;0.88;;;18.00;54.60;;;;;;5045184;28;45370;-72
2023/01/03 01:33:12;;;;;;;1.02;0.95;;;18.00;54.60;;;;;;5044917;27;46639;-71
2023/01/03 01:35:39;;;;;;;0.90;0.90;;;18.00;54.60;;;;;;5044614;28;45159;-72
2023/01/03 01:38:06;;;;;;;1.10;1.00;;;18.00;54.50;;;;;;5044205;28;45293;-72
2023/01/03 01:40:33;;;;;;;0.85;0.85;;;18.00;54.50;;;;;;5044987;28;45340;-72
2023/01/03 01:45:54;;;;;;;1.02;1.00;;;17.90;54.50;;;;;;5005027;28;45469;-72
2023/01/03 01:48:20;;;;;;;1.02;0.95;;;17.90;54.50;;;;;;5044747;28;45211;-72
2023/01/03 01:50:49;;;;;;;0.75;0.75;;;17.90;54.50;;;;;;5044928;28;45120;-71
2023/01/03 01:53:18;;;;;;;1.10;1.00;;;17.90;54.50;;;;;;5044467;28;46413;-72
2023/01/03 01:55:46;;;;;;;1.02;0.98;;;17.90;54.50;;;;;;5044580;28;45317;-72
2023/01/03 01:58:13;;;;;;;1.08;1.08;;;17.90;54.50;;;;;;5044692;28;45187;-72
2023/01/03 02:00:42;;;;;;;0.80;0.80;;;17.90;54.50;;;;;;5044828;28;45121;-72
2023/01/03 02:03:10;;;;;;;1.08;0.90;;;17.90;54.50;;;;;;5044355;28;45542;-72
2023/01/03 02:05:39;;;;;;;1.20;1.10;;;17.90;54.50;;;;;;5044359;28;45122;-72
2023/01/03 02:08:06;;;;;;;0.80;0.80;;;17.90;54.50;;;;;;5044734;28;45352;-72
2023/01/03 02:10:41;;;;;;;0.70;0.70;;;17.90;54.50;;;;;;5044674;28;45293;-72
2023/01/03 02:13:11;;;;;;;0.80;0.70;;;17.90;54.50;;;;;;5044422;28;46637;-71
2023/01/03 02:15:57;;;;;;;0.95;0.82;;;17.90;54.60;;;;;;5044571;28;45214;-72
2023/01/03 02:18:38;;;;;;;1.08;0.90;;;17.90;54.60;;;;;;5044443;28;45182;-72
2023/01/03 02:21:18;;;;;;;1.15;0.95;;;17.80;54.50;;;;;;5044604;28;45236;-72
2023/01/03 02:24:10;;;;;;;0.80;0.80;;;17.80;54.50;;;;;;5044104;28;45233;-72
2023/01/03 02:26:44;;;;;;;0.90;0.90;;;17.80;54.50;;;;;;5044288;27;45140;-72
2023/01/03 02:29:40;;;;;;;1.35;0.80;;;17.80;54.50;;;;;;5044252;28;45244;-72
2023/01/03 02:32:10;;;;;;;1.08;0.90;;;17.80;54.50;;;;;;5044345;28;45122;-72
2023/01/03 02:34:40;;;;;;;0.80;0.80;;;17.80;54.50;;;;;;5044097;28;46271;-71
2023/01/03 02:37:12;;;;;;;1.00;0.90;;;17.80;55.10;;;;;;5044090;28;45149;-72
2023/01/03 02:39:43;;;;;;;0.70;0.70;;;17.80;54.50;;;;;;5043999;28;45391;-72
2023/01/03 02:45:07;;;;;;;0.93;0.93;;;17.80;54.50;;;;;;5041483;28;45265;-71
2023/01/03 02:47:38;;;;;;;0.98;0.98;;;17.80;54.50;;;;;;5043850;28;45321;-72
2023/01/03 02:50:06;;;;;;;0.80;0.80;;;17.80;54.50;;;;;;5044080;28;45185;-71
2023/01/03 02:52:33;;;;;;;0.98;0.80;;;17.80;54.50;;;;;;5044066;28;45321;-72
2023/01/03 02:55:02;;;;;;;1.08;0.98;;;17.80;54.60;;;;;;5043797;28;46591;-71
2023/01/03 02:57:31;;;;;;;1.00;0.90;;;17.80;54.60;;;;;;5044069;28;45212;-72
2023/01/03 02:59:59;;;;;;;1.17;0.95;;;17.80;54.50;;;;;;5044178;28;45441;-72
2023/01/03 03:02:28;;;;;;;0.80;0.80;;;17.70;54.50;;;;;;5043979;28;45333;-72
2023/01/03 03:04:57;;;;;;;1.30;0.85;;;17.70;54.50;;;;;;5043749;28;45463;-71
2023/01/03 03:07:24;;;;;;;1.08;0.98;;;17.70;54.60;;;;;;5043587;28;45346;-72
2023/01/03 03:15:29;;;;;;;0.73;0.73;;;17.70;54.60;;;;;;5041102;28;45178;-72
2023/01/03 03:17:57;;;;;;;0.98;0.75;;;17.70;54.50;;;;;;5043570;28;45378;-72
2023/01/03 03:25:55;;;;;;;1.13;0.80;;;17.70;54.60;;;;;;5040648;28;45799;-71
2023/01/03 03:28:35;;;;;;;0.82;0.82;;;17.70;54.60;;;;;;5043141;28;45257;-71
2023/01/03 03:31:03;;;;;;;0.95;0.70;;;17.70;54.60;;;;;;5043896;27;45308;-71
2023/01/03 03:33:32;;;;;;;0.77;0.77;;;17.70;54.60;;;;;;5043626;28;45482;-71
2023/01/03 03:36:02;;;;;;;0.80;0.80;;;17.70;54.60;;;;;;5043252;27;46646;-71
2023/01/03 03:38:31;;;;;;;0.63;0.60;;;17.70;54.60;;;;;;5043425;28;45258;-72
2023/01/03 03:46:44;;;;;;;0.70;0.70;;;17.60;54.70;;;;;;5055086;28;45576;-72
2023/01/03 03:52:00;;;;;;;0.82;0.80;;;17.60;54.60;;;;;;5046434;27;45337;-72
2023/01/03 03:54:27;;;;;;;0.65;0.65;;;17.60;54.60;;;;;;5046406;28;45458;-72
2023/01/03 03:56:56;;;;;;;0.60;0.60;;;17.60;55.20;;;;;;5045839;28;45292;-72
2023/01/03 03:59:23;;;;;;;0.80;0.80;;;17.60;54.60;;;;;;5046040;28;45314;-72
2023/01/03 04:01:50;;;;;;;0.93;0.70;;;17.60;54.60;;;;;;5046048;28;45341;-72
2023/01/03 04:04:18;;;;;;;0.70;0.70;;;17.60;54.60;;;;;;5046174;28;45236;-72
2023/01/03 04:06:46;;;;;;;0.80;0.80;;;17.60;54.60;;;;;;5045746;28;45462;-72
2023/01/03 04:09:15;;;;;;;0.63;0.63;;;17.60;54.60;;;;;;5046055;28;45321;-72
2023/01/03 04:11:41;;;;;;;0.93;0.85;;;17.60;54.60;;;;;;5046011;28;45243;-72
2023/01/03 04:14:08;;;;;;;1.23;0.80;;;17.60;54.60;;;;;;5046103;27;45387;-70
2023/01/03 04:16:36;;;;;;;0.60;0.60;;;17.60;54.60;;;;;;5045185;28;46653;-72
2023/01/03 04:19:03;;;;;;;0.75;0.75;;;17.60;54.60;;;;;;5046132;27;45262;-72
2023/01/03 04:21:30;;;;;;;0.82;0.80;;;17.60;54.70;;;;;;5046061;28;45277;-72
2023/01/03 04:23:56;;;;;;;0.70;0.70;;;17.60;54.70;;;;;;5046115;27;45481;-72
2023/01/03 04:26:25;;;;;;;0.85;0.73;;;17.60;54.70;;;;;;5045527;28;46641;-72
2023/01/03 04:28:51;;;;;;;0.90;0.80;;;17.60;54.70;;;;;;5045696;28;45192;-72
2023/01/03 04:31:18;;;;;;;0.60;0.60;;;17.60;54.70;;;;;;5045945;28;45269;-72
2023/01/03 04:33:45;;;;;;;0.70;0.70;;;17.60;54.60;;;;;;5045737;28;45273;-72
2023/01/03 04:36:12;;;;;;;0.80;0.80;;;17.60;54.70;;;;;;5045566;28;46482;-72
2023/01/03 04:38:39;;;;;;;1.20;0.70;;;17.60;54.60;;;;;;5045569;28;45196;-71
2023/01/03 04:41:06;;;;;;;0.88;0.88;;;17.60;54.70;;;;;;5045650;28;45243;-72
2023/01/03 04:46:18;;;;;;;0.63;0.63;;;17.50;54.60;;;;;;5042655;28;45742;-72
2023/01/03 04:48:45;;;;;;;0.80;0.75;;;17.50;54.60;;;;;;5045316;28;45464;-70
2023/01/03 04:51:12;;;;;;;0.80;0.80;;;17.50;54.60;;;;;;5045748;28;45302;-72
2023/01/03 04:53:39;;;;;;;0.65;0.65;;;17.50;54.70;;;;;;5045676;28;45239;-72
2023/01/03 04:56:06;;;;;;;0.82;0.82;;;17.50;54.70;;;;;;5045289;28;46377;-72
2023/01/03 04:58:34;;;;;;;1.95;0.80;;;17.50;54.60;;;;;;5045296;28;45341;-72
2023/01/03 05:01:01;;;;;;;0.80;0.80;;;17.50;54.60;;;;;;5045730;28;45405;-72
2023/01/03 05:03:28;;;;;;;0.70;0.70;;;17.50;54.70;;;;;;5044323;28;45549;-72
2023/01/03 05:05:58;;;;;;;0.88;0.75;;;17.50;54.60;;;;;;5044924;27;45741;-71
2023/01/03 05:08:25;;;;;;;0.80;0.80;;;17.50;54.70;;;;;;5045294;28;45295;-72
2023/01/03 05:10:52;;;;;;;0.60;0.60;;;17.50;54.70;;;;;;5045472;28;45420;-72
2023/01/03 05:13:19;;;;;;;0.70;0.70;;;17.50;54.70;;;;;;5045406;28;45415;-72
2023/01/03 05:15:47;;;;;;;0.80;0.80;;;17.50;54.70;;;;;;5045034;28;46427;-72
2023/01/03 05:18:14;;;;;;;0.70;0.70;;;17.50;54.60;;;;;;5045011;28;45243;-72
2023/01/03 05:26:10;;;;;;;0.68;0.68;;;17.50;54.70;;;;;;5042493;28;45287;-72
2023/01/03 05:28:37;;;;;;;0.60;0.60;;;17.50;54.70;;;;;;5044905;28;45265;-71
2023/01/03 05:31:05;;;;;;;0.55;0.55;;;17.50;54.70;;;;;;5045288;28;45204;-72
2023/01/03 05:33:32;;;;;;;0.60;0.60;;;17.50;54.80;;;;;;5044962;28;45462;-72
2023/01/03 05:35:59;;;;;;;0.75;0.75;;;17.50;54.70;;;;;;5044933;28;45371;-72
2023/01/03 05:38:26;;;;;;;0.70;0.70;;;17.50;54.80;;;;;;5044844;28;45354;-72
2023/01/03 05:40:53;;;;;;;0.88;0.75;;;17.50;54.80;;;;;;5044863;28;45165;-72
2023/01/03 05:43:19;;;;;;;0.60;0.60;;;17.50;54.70;;;;;;5044990;28;45179;-72
2023/01/03 05:45:49;;;;;;;1.27;0.70;;;17.50;55.30;;;;;;5044636;28;47312;-72
2023/01/03 05:48:17;;;;;;;0.63;0.63;;;17.50;54.80;;;;;;5044638;28;45337;-72
2023/01/03 05:50:44;;;;;;;0.60;0.60;;;17.50;54.80;;;;;;5045008;28;45275;-71
2023/01/03 05:53:11;;;;;;;0.77;0.77;;;17.40;54.70;;;;;;5045338;28;45293;-72
2023/01/03 05:55:37;;;;;;;0.80;0.80;;;17.40;54.70;;;;;;5044732;28;46723;-71
2023/01/03 05:58:04;;;;;;;0.77;0.77;;;17.40;54.70;;;;;;5044596;28;45252;-72
2023/01/03 06:00:31;;;;;;;1.52;0.75;;;17.40;54.70;;;;;;5045065;28;45336;-72
2023/01/03 06:02:58;;;;;;;0.70;0.70;;;17.40;54.70;;;;;;5045272;28;45288;-71
2023/01/03 06:05:26;;;;;;;0.70;0.70;;;17.40;54.70;;;;;;5045126;28;46423;-72
2023/01/03 06:07:53;;;;;;;1.13;0.65;;;17.40;54.70;;;;;;5044810;28;45443;-71
2023/01/03 06:10:20;;;;;;;0.80;0.80;;;17.40;54.70;;;;;;5045081;28;45367;-71
2023/01/03 06:12:47;;;;;;;0.80;0.80;;;17.40;54.70;;;;;;5044837;28;45462;-72
2023/01/03 06:15:14;;;;;;;1.23;0.70;;;17.40;54.70;;;;;;5043467;28;47345;-71
2023/01/03 06:17:56;;;;;;;0.60;0.60;;;17.40;54.70;;;;;;5044595;28;45186;-72
2023/01/03 06:20:23;;;;;;;0.73;0.73;;;17.40;54.70;;;;;;5044776;27;45265;-72
2023/01/03 06:22:52;;;;;;;0.60;0.60;;;17.40;54.70;;;;;;5044843;28;45118;-71
2023/01/03 06:25:19;;;;;;;0.80;0.80;;;17.30;54.60;;;;;;5044416;28;46366;-71
2023/01/03 06:27:46;;;;;;;1.25;0.68;;;17.30;54.60;;;;;;5044126;28;45430;-71
2023/01/03 06:30:14;;;;;;;0.77;0.77;;;17.30;54.60;;;;;;5044761;28;45274;-71
2023/01/03 06:32:41;;;;;;;0.70;0.70;;;17.30;54.70;;;;;;5044473;28;45576;-71
2023/01/03 06:35:09;;;;;;;2.83;1.00;;;17.30;54.70;;;;;;5044201;28;46926;-72
2023/01/03 06:37:35;;;;;;;0.80;0.80;;;17.30;54.70;;;;;;5044327;28;45368;-72
2023/01/03 06:40:04;;;;;;;0.80;0.80;;;17.30;54.60;;;;;;5044431;28;45375;-72
2023/01/03 06:42:45;;;;;;;0.70;0.70;;;17.30;54.70;;;;;;5044579;28;45173;-72
2023/01/03 06:53:26;;;;;;;0.80;0.80;;;17.20;54.60;;;;;;5044464;28;45346;-72
2023/01/03 06:55:54;;;;;;;0.80;0.80;;;17.20;54.60;;;;;;5044029;27;46417;-72
2023/01/03 06:58:20;;;;;;;0.75;0.70;;;17.20;54.60;;;;;;5043851;28;45179;-72
2023/01/03 07:00:47;;;;;;;0.88;0.70;;;17.20;54.70;;;;;;5043826;28;45259;-72
2023/01/03 07:03:14;;;;;;;0.90;0.90;;;17.20;54.70;;;;;;5044053;28;45393;-72
2023/01/03 07:05:41;;;;;;;0.60;0.60;;;17.20;54.60;;;;;;5043647;28;46624;-72
2023/01/03 07:08:08;;;;;;;1.38;1.10;;;17.20;54.60;;;;;;5043238;28;45354;-72
2023/01/03 07:10:34;;;;;;;0.90;0.90;;;17.20;54.60;;;;;;5043883;28;45138;-72
2023/01/03 07:15:47;;;;;;;1.15;1.08;;;17.20;54.60;;;;;;5041064;28;45228;-72
2023/01/03 07:18:14;;;;;;;1.42;1.10;;;17.20;54.60;;;;;;5043622;28;46028;-72
2023/01/03 07:20:42;;;;;;;1.23;1.13;;;17.20;54.60;;;;;;5043729;28;45256;-72
2023/01/03 07:23:09;;;;;;;1.20;1.00;;;17.10;54.60;;;;;;5043923;28;45504;-72
2023/01/03 07:25:39;;;;;;;2.17;1.00;;;17.10;54.60;;;;;;5043624;28;46456;-72
2023/01/03 07:28:08;;;;;;;2.80;1.10;;;17.10;54.60;;;;;;5045715;27;45531;-72
2023/01/03 07:30:39;;;;;;;1.23;1.10;;;17.10;54.60;;;;;;5046864;28;45250;-72
2023/01/03 07:33:06;;;;;;;1.48;1.20;;;17.10;54.60;;;;;;5046632;28;45304;-72
2023/01/03 07:35:33;;;;;;;1.40;1.30;;;17.10;54.60;;;;;;5046229;28;45298;-72
2023/01/03 07:38:00;;;;;;;1.33;1.17;;;17.10;54.60;;;;;;5046306;28;45261;-72
2023/01/03 07:40:27;;;;;;;2.10;1.40;;;17.10;54.60;;;;;;5046435;28;45126;-72
2023/01/03 07:45:41;;;;;;;1.80;1.30;;;17.10;54.50;;;;;;5043839;28;45908;-72
2023/01/03 07:48:08;;;;;;;1.98;1.27;;;17.10;54.50;;;;;;5046231;28;45389;-72
2023/01/03 07:50:35;;;;;;;2.40;1.48;;;17.10;54.60;;;;;;5046387;28;45163;-72
2023/01/03 07:53:02;;;;;;;2.63;1.70;;;17.10;54.50;;;;;;5046710;28;45382;-72
2023/01/03 07:55:28;;;;;;;1.90;1.45;;;17.10;54.60;;;;;;5046114;28;48339;-71
2023/01/03 07:57:55;;;;;;;1.63;1.52;;;17.00;54.50;;;;;;5046368;28;45227;-72
2023/01/03 08:00:22;;;;;;;1.95;1.60;;;17.10;54.60;;;;;;5046511;28;45298;-71
2023/01/03 08:02:52;;;;;;;2.38;1.52;;;17.00;54.50;;;;;;5046563;28;45168;-70
2023/01/03 08:05:19;;;;;;;2.85;1.90;;;17.00;54.50;;;;;;5045577;28;45477;-71
2023/01/03 08:07:47;;;;;;;2.30;2.00;;;17.00;54.50;;;;;;5045838;28;45247;-71
2023/01/03 08:15:43;;;;;;;1.98;1.88;;;17.00;54.50;;;;;;5045812;28;45434;-71
2023/01/03 08:18:12;;;;;;;4.07;2.35;;;17.00;54.50;;;;;;5046166;28;45121;-71
2023/01/03 08:20:39;;;;;;;2.45;2.17;;;17.00;54.50;;;;;;5046278;27;45293;-71
2023/01/03 08:23:06;;;;;;;1.90;1.80;;;17.00;54.50;;;;;;5046159;28;45462;-71
2023/01/03 08:25:33;;;;;;;3.75;2.28;;;17.00;54.50;;;;;;5046205;28;45437;-71
2023/01/03 08:28:00;;;;;;;3.05;2.00;;;17.00;54.50;;;;;;5045660;28;45218;-72
2023/01/03 08:30:27;;;;;;;3.53;2.40;;;17.00;54.50;;;;;;5046119;28;45192;-71
2023/01/03 08:32:54;;;;;;;5.47;2.53;;;17.00;54.50;;;;;;5046385;27;45168;-70
2023/01/03 08:35:22;;;;;;;2.95;2.35;;;17.00;54.50;;;;;;5046025;28;46661;-70
2023/01/03 08:37:52;;;;;;;4.28;2.58;;;17.00;54.50;;;;;;5044952;28;45214;-72
2023/01/03 08:40:18;;;;;;;2.58;2.22;;;17.00;54.50;;;;;;5045785;27;45258;-72
2023/01/03 08:42:45;;;;;;;4.07;2.53;;;17.00;54.50;;;;;;5045877;28;45304;-73
2023/01/03 08:45:13;;;;;;;4.35;2.50;;;17.00;54.50;;;;;;5045515;28;46725;-72
2023/01/03 08:47:40;;;;;;;3.65;2.83;;;17.00;54.50;;;;;;5045349;28;45279;-72
2023/01/03 08:50:08;;;;;;;3.90;2.60;;;17.00;54.50;;;;;;5045716;28;45126;-73
2023/01/03 08:52:36;;;;;;;3.80;2.65;;;17.00;54.50;;;;;;5045620;28;45396;-72
2023/01/03 08:55:03;;;;;;;3.47;2.53;;;17.00;54.50;;;;;;5045515;28;46729;-73
2023/01/03 08:57:30;;;;;;;3.65;2.92;;;17.10;54.50;;;;;;5045446;28;45221;-72
2023/01/03 08:59:57;;;;;;;3.45;2.70;;;17.00;54.50;;;;;;5045248;28;45146;-71
2023/01/03 09:02:23;;;;;;;4.32;2.78;;;17.00;54.50;;;;;;5042337;28;45298;-72
2023/01/03 09:04:50;;;;;;;3.03;2.72;;;17.00;54.50;;;;;;5045264;28;46405;-73
2023/01/03 09:07:17;;;;;;;5.07;2.70;;;17.00;54.50;;;;;;5045140;28;45355;-72
2023/01/03 09:09:45;;;;;;;4.43;2.45;;;17.10;54.50;;;;;;5045360;28;45405;-72
2023/01/03 09:12:12;;;;;;;3.65;2.58;;;17.10;54.60;;;;;;5045298;28;45458;-72
2023/01/03 09:14:39;;;;;;;4.55;3.03;;;17.10;54.60;;;;;;5045285;28;46751;-72
2023/01/03 09:17:06;;;;;;;4.80;2.72;;;17.10;54.60;;;;;;5045129;28;45292;-72
2023/01/03 09:19:32;;;;;;;3.20;2.67;;;17.10;54.60;;;;;;5045734;27;45296;-72
2023/01/03 09:21:59;;;;;;;4.78;3.00;;;17.10;54.60;;;;;;5045337;28;45391;-72
2023/01/03 09:24:26;;;;;;;5.28;3.08;;;17.10;54.60;;;;;;5045099;28;46520;-72
2023/01/03 09:26:54;;;;;;;4.43;2.95;;;17.10;54.60;;;;;;5044832;28;45142;-72
2023/01/03 09:29:21;;;;;;;4.40;2.88;;;17.10;54.60;;;;;;5045139;28;45414;-72
2023/01/03 09:31:48;;;;;;;5.75;2.78;;;17.10;54.60;;;;;;5045398;28;45436;-72
2023/01/03 09:34:15;;;;;;;6.30;3.53;;;17.10;54.60;;;;;;5044922;28;46703;-72
2023/01/03 09:36:41;;;;;;;4.10;3.25;;;17.10;54.60;;;;;;5044926;28;45186;-72
2023/01/03 09:39:08;;;;;;;8.32;3.25;;;17.10;54.60;;;;;;5045306;28;45168;-72
2023/01/03 09:41:35;;;;;;;5.45;3.60;;;17.10;54.60;;;;;;5044553;28;45457;-73
2023/01/03 09:44:04;;;;;;;4.72;3.40;;;17.10;54.60;;;;;;5044869;27;46367;-72
2023/01/03 09:46:31;;;;;;;8.98;4.07;;;17.10;54.60;;;;;;5044823;28;45197;-72
2023/01/03 09:48:58;;;;;;;8.02;4.05;;;17.10;54.60;;;;;;5044686;28;45251;-72
2023/01/03 10:05:28;;;;;;;6.85;3.67;;;17.20;54.60;;;;;;5044651;28;45361;-72
2023/01/03 10:08:10;;;;;;;4.55;3.58;;;17.20;54.60;;;;;;5044279;28;45237;-72
2023/01/03 10:10:41;;;;;;;4.55;3.85;;;17.20;54.70;;;;;;5044379;28;45187;-72
2023/01/03 10:13:11;;;;;;;5.07;3.90;;;17.20;54.70;;;;;;5044644;28;45430;-72
2023/01/03 10:15:45;;;;;;;6.97;4.50;;;17.20;54.60;;;;;;5044924;28;45184;-72
2023/01/03 10:18:19;;;;;;;6.10;4.00;;;17.20;54.70;;;;;;5044283;28;45144;-72
2023/01/03 10:20:46;;;;;;;6.75;4.20;;;17.20;54.70;;;;;;5044228;28;45219;-72
2023/01/03 10:23:13;;;;;;;5.15;3.80;;;17.20;54.70;;;;;;5044566;28;45296;-72
2023/01/03 10:25:42;;;;;;;4.43;3.58;;;17.20;54.80;;;;;;5044058;27;46639;-72
2023/01/03 10:28:12;;;;;;;4.45;3.58;;;17.20;54.80;;;;;;5043957;28;45351;-72
2023/01/03 10:30:48;;;;;;;6.53;4.45;;;17.20;54.70;;;;;;5044302;28;45267;-72
2023/01/03 10:33:28;;;;;;;4.07;3.45;;;17.20;54.70;;;;;;5044234;28;45198;-72
2023/01/03 10:35:55;;;;;;;6.00;4.05;;;17.30;54.60;;;;;;5043849;27;46438;-72
2023/01/03 10:38:24;;;;;;;5.00;3.63;;;17.30;54.60;;;;;;5044203;28;45238;-72
2023/01/03 10:40:52;;;;;;;5.57;4.20;;;17.30;54.50;;;;;;5044276;27;45328;-72
2023/01/03 10:43:20;;;;;;;3.90;3.53;;;17.30;54.50;;;;;;5044290;28;45457;-72
2023/01/03 10:45:55;;;;;;;6.40;3.95;;;17.30;54.50;;;;;;5043765;27;46656;-72
2023/01/03 10:48:22;;;;;;;6.35;3.95;;;17.30;54.60;;;;;;5043911;28;45202;-72
2023/01/03 10:50:49;;;;;;;5.07;3.40;;;17.30;54.60;;;;;;5044305;27;45266;-72
2023/01/03 10:53:17;;;;;;;10.02;4.00;;;17.30;54.60;;;;;;5044215;28;45425;-72
2023/01/03 10:55:45;;;;;;;4.32;3.90;;;17.30;54.60;;;;;;5044154;28;46406;-72
2023/01/03 10:58:16;;;;;;;5.25;4.03;;;17.30;54.60;;;;;;5043915;28;45175;-72
2023/01/03 11:00:43;;;;;;;6.15;3.88;;;17.30;54.60;;;;;;5043628;28;45333;-72
2023/01/03 11:03:16;;;;;;;4.60;3.22;;;17.40;54.60;;;;;;5042974;28;45224;-70
2023/01/03 11:05:43;;;;;;;4.00;3.60;;;17.40;54.50;;;;;;5042836;28;46770;-72
2023/01/03 11:08:19;;;;;;;7.00;3.60;;;17.40;55.10;;;;;;5043409;28;45365;-73
2023/01/03 11:10:53;;;;;;;4.20;3.45;;;17.40;54.60;;;;;;5043570;28;45273;-71
2023/01/03 11:13:25;;;;;;;3.90;3.22;;;17.40;54.60;;;;;;5043881;28;45328;-72
2023/01/03 11:15:54;;;;;;;3.78;3.10;;;17.40;54.60;;;;;;5043415;28;46394;-72
2023/01/03 11:18:24;;;;;;;5.45;3.60;;;17.40;54.50;;;;;;5043530;28;45186;-72
2023/01/03 11:20:52;;;;;;;4.32;3.47;;;17.40;54.50;;;;;;5043495;27;45515;-72
2023/01/03 11:23:25;;;;;;;4.95;3.47;;;17.40;54.50;;;;;;5043517;28;45287;-72
2023/01/03 11:25:54;;;;;;;4.00;3.08;;;17.40;54.60;;;;;;5043272;28;46732;-72
2023/01/03 11:28:50;;;;;;;5.97;3.20;;;17.50;54.60;;;;;;5043002;28;45252;-72
2023/01/03 11:31:23;;;;;;;3.40;3.05;;;17.40;54.60;;;;;;5043335;28;45203;-72
2023/01/03 11:33:59;;;;;;;3.70;3.17;;;17.50;54.60;;;;;;5043456;28;45241;-72
2023/01/03 11:36:30;;;;;;;4.32;2.72;;;17.50;55.20;;;;;;5043254;28;46638;-71
2023/01/03 11:39:02;;;;;;;4.10;3.58;;;17.60;54.50;;;;;;5043085;28;45332;-72
2023/01/03 11:41:50;;;;;;;5.20;2.97;;;17.70;54.30;;;;;;5043199;28;45149;-72
2023/01/03 11:44:49;;;;;;;3.60;2.90;;;17.90;53.90;;;;;;5043614;28;45391;-72
2023/01/03 11:47:21;;;;;;;4.45;2.70;;;17.90;53.70;;;;;;5050132;28;45612;-72
2023/01/03 11:49:57;;;;;;;4.65;2.67;;;18.00;53.60;;;;;;5042491;28;45268;-72
2023/01/03 11:52:28;;;;;;;3.80;2.70;;;18.00;53.40;;;;;;5039830;28;45281;-72
2023/01/03 11:55:33;;;;;;;6.13;3.05;;;18.00;53.40;;;;;;5043143;28;45382;-72
2023/01/03 11:58:06;;;;;;;4.85;3.08;;;18.10;53.20;;;;;;5045156;27;45230;-72
2023/01/03 12:00:34;;;;;;;2.70;2.50;;;18.20;53.10;;;;;;5042717;28;45219;-72
2023/01/03 12:03:07;;;;;;;4.03;2.97;;;18.30;53.00;;;;;;5042983;28;45417;-71
2023/01/03 12:05:48;;;;;;;3.60;3.30;;;18.40;52.90;;;;;;5042782;28;45127;-72
2023/01/03 12:08:36;;;;;;;3.78;2.67;;;18.50;52.70;;;;;;5042524;28;46336;-72
2023/01/03 12:11:06;;;;;;;3.70;2.75;;;18.50;52.60;;;;;;5045208;27;45220;-72
2023/01/03 12:13:33;;;;;;;5.60;3.08;;;18.40;52.60;;;;;;5043612;28;45317;-72
2023/01/03 12:16:03;;;;;;;3.67;2.67;;;18.40;52.90;;;;;;5046206;28;45309;-72
2023/01/03 12:18:37;;;;;;;3.80;2.67;;;18.30;53.10;;;;;;5044932;28;46719;-72
2023/01/03 12:21:07;;;;;;;3.35;2.78;;;18.30;53.10;;;;;;5044911;28;45258;-71
2023/01/03 12:23:37;;;;;;;3.50;2.42;;;18.40;53.00;;;;;;5045317;28;45350;-72
2023/01/03 12:26:05;;;;;;;3.95;2.72;;;18.50;52.80;;;;;;5046017;28;45112;-72
2023/01/03 12:28:34;;;;;;;4.18;2.70;;;18.60;52.60;;;;;;5044916;28;46626;-72
2023/01/03 12:31:02;;;;;;;5.47;2.85;;;18.70;52.40;;;;;;5045533;28;45295;-72
2023/01/03 12:33:31;;;;;;;3.60;2.60;;;18.70;52.30;;;;;;5045681;28;45195;-72
2023/01/03 12:36:01;;;;;;;4.68;2.45;;;18.70;52.30;;;;;;5045875;28;45260;-72
2023/01/03 12:38:30;;;;;;;2.53;2.28;;;18.70;52.30;;;;;;5045606;28;46357;-72
2023/01/03 12:41:00;;;;;;;2.80;2.47;;;18.60;52.40;;;;;;5053858;28;45456;-74
2023/01/03 12:43:30;;;;;;;2.55;2.35;;;18.60;52.60;;;;;;5065596;27;45168;-74
2023/01/03 12:46:00;;;;;;;3.92;2.90;;;18.50;52.70;;;;;;5065639;28;45350;-73
2023/01/03 12:48:52;;;;;;;2.92;2.40;;;18.40;52.90;;;;;;5054176;27;45407;-73
2023/01/03 12:51:20;;;;;;;2.25;2.05;;;18.30;53.20;;;;;;5045771;28;45313;-73
2023/01/03 12:53:50;;;;;;;2.80;2.40;;;18.30;53.40;;;;;;5045942;28;45325;-73
2023/01/03 12:56:41;;;;;;;3.15;2.55;;;18.20;53.60;;;;;;5045848;28;45279;-73
2023/01/03 12:59:14;;;;;;;4.03;1.95;;;18.20;53.70;;;;;;5037554;27;45369;-73
2023/01/03 13:01:42;;;;;;;2.20;2.00;;;18.20;53.80;;;;;;5045092;28;45314;-74
2023/01/03 13:04:13;;;;;;;4.35;2.38;;;18.10;53.80;;;;;;5045276;27;45136;-73
2023/01/03 13:06:40;;;;;;;5.40;2.20;;;18.10;53.90;;;;;;5045485;28;45369;-73
2023/01/03 13:09:16;;;;;;;5.10;2.45;;;18.10;53.90;;;;;;5044998;28;45234;-73
2023/01/03 13:11:44;;;;;;;4.10;2.40;;;18.00;53.90;;;;;;5044994;27;45225;-73
2023/01/03 13:14:17;;;;;;;3.85;2.10;;;18.00;54.00;;;;;;5044747;27;45267;-74
2023/01/03 13:16:45;;;;;;;4.45;2.30;;;18.00;54.10;;;;;;5045596;28;45198;-73
2023/01/03 13:19:55;;;;;;;4.03;2.30;;;18.00;54.10;;;;;;5045308;28;47350;-72
2023/01/03 13:22:33;;;;;;;2.42;2.00;;;18.00;54.30;;;;;;5044777;28;45234;-74
2023/01/03 13:25:45;;;;;;;2.05;1.88;;;18.00;54.60;;;;;;5044799;28;45195;-73
2023/01/03 13:28:32;;;;;;;4.68;2.30;;;17.90;55.00;;;;;;5045024;27;45263;-74
2023/01/03 13:31:37;;;;;;;6.53;1.98;;;17.90;55.40;;;;;;5044716;28;46628;-73
2023/01/03 13:34:15;;;;;;;5.13;1.90;;;17.90;55.50;;;;;;5044834;28;45129;-73
2023/01/03 13:37:10;;;;;;;4.40;2.22;;;17.90;55.40;;;;;;5044863;28;45311;-74
2023/01/03 13:39:38;;;;;;;4.45;2.03;;;17.90;55.40;;;;;;5037766;27;45261;-73
2023/01/03 13:42:05;;;;;;;2.78;1.95;;;17.90;55.30;;;;;;5044595;28;46722;-73
2023/01/03 13:44:33;;;;;;;4.30;2.08;;;17.80;55.80;;;;;;5044658;27;45317;-73
2023/01/03 13:47:00;;;;;;;3.15;2.20;;;17.90;55.30;;;;;;5045213;28;45191;-74
2023/01/03 13:49:27;;;;;;;4.07;2.00;;;17.90;55.10;;;;;;5044253;28;45405;-73
2023/01/03 13:51:54;;;;;;;3.13;1.90;;;17.80;55.10;;;;;;5044423;27;45417;-74
2023/01/03 13:54:40;;;;;;;4.90;2.00;;;17.80;55.00;;;;;;5044574;27;45248;-73
2023/01/03 13:57:29;;;;;;;4.50;2.13;;;17.80;55.10;;;;;;5031401;27;45451;-74
2023/01/03 13:59:57;;;;;;;3.05;1.73;;;17.80;55.10;;;;;;5044729;28;45457;-72
2023/01/03 14:02:44;;;;;;;2.08;1.65;;;17.80;55.00;;;;;;5043434;28;45308;-74
2023/01/03 14:05:20;;;;;;;5.78;1.88;;;17.80;55.00;;;;;;5044501;27;45249;-74
2023/01/03 14:07:58;;;;;;;3.10;1.85;;;17.80;55.00;;;;;;5042151;28;45271;-73
2023/01/03 14:11:12;;;;;;;3.55;1.75;;;17.80;55.00;;;;;;5044845;28;45259;-74
2023/01/03 14:13:41;;;;;;;6.35;1.80;;;17.70;55.00;;;;;;5076613;28;45475;-74